Terminal Aerodrome Forecast
Issued by NWS

Home | Current Version | Previous Version | Text Only | Print | Product List | Glossary On
Versions: 1 2 3 4 5 6 7 8 9 10 11 12 13 14
000
FTUS42 TJSJ 032328
TAFJSJ
TAF
TJSJ 032328Z 0400/0424 VRB03KT P6SM SKC
     FM041250 08015G21KT P6SM VCSH SCT040
     FM042250 09009KT 6SM HZ FEW040=

USA.gov is the U.S. government's official web portal to all federal, state and local government web resources and services.